sensor_id;sensor_type;location;lat;lon;timestamp;temperature;humidity
37518;DHT22;23366;52.498;13.446;2023-02-18T00:00:54;7.30;99.90
37518;DHT22;23366;52.498;13.446;2023-02-18T00:03:22;7.30;99.90
37518;DHT22;23366;52.498;13.446;2023-02-18T00:05:48;7.40;99.90
37518;DHT22;23366;52.498;13.446;2023-02-18T00:08:14;7.30;99.90
37518;DHT22;23366;52.498;13.446;2023-02-18T00:10:40;7.30;99.90
37518;DHT22;23366;52.498;13.446;2023-02-18T00:13:06;7.30;99.90
37518;DHT22;23366;52.498;13.446;2023-02-18T00:15:34;7.30;99.90
37518;DHT22;23366;52.498;13.446;2023-02-18T00:18:00;7.30;99.90
37518;DHT22;23366;52.498;13.446;2023-02-18T00:20:25;7.30;99.90
37518;DHT22;23366;52.498;13.446;2023-02-18T00:22:53;7.30;99.90
37518;DHT22;23366;52.498;13.446;2023-02-18T00:25:21;7.20;99.90
37518;DHT22;23366;52.498;13.446;2023-02-18T00:27:49;7.30;99.90
37518;DHT22;23366;52.498;13.446;2023-02-18T00:30:15;7.20;99.90
37518;DHT22;23366;52.498;13.446;2023-02-18T00:32:41;7.30;99.90
37518;DHT22;23366;52.498;13.446;2023-02-18T00:35:07;7.20;99.90
37518;DHT22;23366;52.498;13.446;2023-02-18T00:37:32;7.20;99.90
37518;DHT22;23366;52.498;13.446;2023-02-18T00:39:58;7.10;99.90
37518;DHT22;23366;52.498;13.446;2023-02-18T00:42:24;7.10;99.90
37518;DHT22;23366;52.498;13.446;2023-02-18T00:44:49;7.10;99.90
37518;DHT22;23366;52.498;13.446;2023-02-18T00:47:14;7.00;99.90
37518;DHT22;23366;52.498;13.446;2023-02-18T00:49:40;7.00;99.90
37518;DHT22;23366;52.498;13.446;2023-02-18T00:52:06;7.00;99.90
37518;DHT22;23366;52.498;13.446;2023-02-18T00:54:31;7.00;99.90
37518;DHT22;23366;52.498;13.446;2023-02-18T00:56:56;6.90;99.90
37518;DHT22;23366;52.498;13.446;2023-02-18T00:59:22;6.90;99.90
37518;DHT22;23366;52.498;13.446;2023-02-18T01:01:48;6.90;99.90
37518;DHT22;23366;52.498;13.446;2023-02-18T01:04:13;6.90;99.90
37518;DHT22;23366;52.498;13.446;2023-02-18T01:06:39;6.80;99.90
37518;DHT22;23366;52.498;13.446;2023-02-18T01:09:05;6.80;99.90
37518;DHT22;23366;52.498;13.446;2023-02-18T01:11:31;6.70;99.90
37518;DHT22;23366;52.498;13.446;2023-02-18T01:13:56;6.70;99.90
37518;DHT22;23366;52.498;13.446;2023-02-18T01:16:23;6.70;99.90
37518;DHT22;23366;52.498;13.446;2023-02-18T01:18:48;6.80;99.90
37518;DHT22;23366;52.498;13.446;2023-02-18T01:21:15;6.70;99.90
37518;DHT22;23366;52.498;13.446;2023-02-18T01:23:40;6.70;99.90
37518;DHT22;23366;52.498;13.446;2023-02-18T01:26:07;6.70;99.90
37518;DHT22;23366;52.498;13.446;2023-02-18T01:28:33;6.70;99.90
37518;DHT22;23366;52.498;13.446;2023-02-18T01:31:05;6.70;99.90
37518;DHT22;23366;52.498;13.446;2023-02-18T01:33:31;6.60;99.90
37518;DHT22;23366;52.498;13.446;2023-02-18T01:35:57;6.70;99.90
37518;DHT22;23366;52.498;13.446;2023-02-18T01:38:23;6.70;99.90
37518;DHT22;23366;52.498;13.446;2023-02-18T01:40:50;6.70;99.90
37518;DHT22;23366;52.498;13.446;2023-02-18T01:43:17;6.60;99.90
37518;DHT22;23366;52.498;13.446;2023-02-18T01:46:16;6.60;99.90
37518;DHT22;23366;52.498;13.446;2023-02-18T01:48:54;6.60;99.90
37518;DHT22;23366;52.498;13.446;2023-02-18T01:51:31;6.60;99.90
37518;DHT22;23366;52.498;13.446;2023-02-18T01:54:03;6.60;99.90
37518;DHT22;23366;52.498;13.446;2023-02-18T01:56:52;6.60;99.90
37518;DHT22;23366;52.498;13.446;2023-02-18T01:59:24;6.70;99.90
37518;DHT22;23366;52.498;13.446;2023-02-18T02:01:50;6.60;99.90
37518;DHT22;23366;52.498;13.446;2023-02-18T02:04:17;6.70;99.90
37518;DHT22;23366;52.498;13.446;2023-02-18T02:06:42;6.60;99.90
37518;DHT22;23366;52.498;13.446;2023-02-18T02:09:10;6.60;99.90
37518;DHT22;23366;52.498;13.446;2023-02-18T02:11:56;6.60;99.90
37518;DHT22;23366;52.498;13.446;2023-02-18T02:32:00;6.60;99.90
37518;DHT22;23366;52.498;13.446;2023-02-18T02:37:37;6.50;99.90
37518;DHT22;23366;52.498;13.446;2023-02-18T02:43:02;6.50;99.90
37518;DHT22;23366;52.498;13.446;2023-02-18T02:45:57;6.50;99.90
37518;DHT22;23366;52.498;13.446;2023-02-18T02:49:00;6.40;99.90
37518;DHT22;23366;52.498;13.446;2023-02-18T02:51:36;6.50;99.90
37518;DHT22;23366;52.498;13.446;2023-02-18T02:54:17;6.40;99.90
37518;DHT22;23366;52.498;13.446;2023-02-18T02:56:44;6.40;99.90
37518;DHT22;23366;52.498;13.446;2023-02-18T02:59:16;6.40;99.90
37518;DHT22;23366;52.498;13.446;2023-02-18T03:04:43;6.40;99.90
37518;DHT22;23366;52.498;13.446;2023-02-18T03:07:47;6.40;99.90
37518;DHT22;23366;52.498;13.446;2023-02-18T03:15:54;6.30;99.90
37518;DHT22;23366;52.498;13.446;2023-02-18T03:21:10;6.30;99.90
37518;DHT22;23366;52.498;13.446;2023-02-18T03:24:29;6.30;99.90
37518;DHT22;23366;52.498;13.446;2023-02-18T03:26:30;6.40;99.90
37518;DHT22;23366;52.498;13.446;2023-02-18T03:29:02;6.30;99.90
37518;DHT22;23366;52.498;13.446;2023-02-18T03:31:29;6.30;99.90
37518;DHT22;23366;52.498;13.446;2023-02-18T03:34:03;6.30;99.90
37518;DHT22;23366;52.498;13.446;2023-02-18T03:36:31;6.30;99.90
37518;DHT22;23366;52.498;13.446;2023-02-18T03:39:03;6.30;99.90
37518;DHT22;23366;52.498;13.446;2023-02-18T03:41:29;6.30;99.90
37518;DHT22;23366;52.498;13.446;2023-02-18T03:43:59;6.40;99.90
37518;DHT22;23366;52.498;13.446;2023-02-18T03:46:29;6.40;99.90
37518;DHT22;23366;52.498;13.446;2023-02-18T03:48:54;6.40;99.90
37518;DHT22;23366;52.498;13.446;2023-02-18T03:51:20;6.40;99.90
37518;DHT22;23366;52.498;13.446;2023-02-18T03:53:46;6.40;99.90
37518;DHT22;23366;52.498;13.446;2023-02-18T03:56:12;6.40;99.90
37518;DHT22;23366;52.498;13.446;2023-02-18T03:58:38;6.40;99.90
37518;DHT22;23366;52.498;13.446;2023-02-18T04:01:04;6.40;99.90
37518;DHT22;23366;52.498;13.446;2023-02-18T04:03:30;6.40;99.90
37518;DHT22;23366;52.498;13.446;2023-02-18T04:05:56;6.40;99.90
37518;DHT22;23366;52.498;13.446;2023-02-18T04:08:21;6.40;99.90
37518;DHT22;23366;52.498;13.446;2023-02-18T04:10:47;6.30;99.90
37518;DHT22;23366;52.498;13.446;2023-02-18T04:13:13;6.30;99.90
37518;DHT22;23366;52.498;13.446;2023-02-18T04:15:38;6.30;99.90
37518;DHT22;23366;52.498;13.446;2023-02-18T04:18:04;6.30;99.90
37518;DHT22;23366;52.498;13.446;2023-02-18T04:20:30;6.30;99.90
37518;DHT22;23366;52.498;13.446;2023-02-18T04:22:55;6.30;99.90
37518;DHT22;23366;52.498;13.446;2023-02-18T04:25:21;6.20;99.90
37518;DHT22;23366;52.498;13.446;2023-02-18T04:27:46;6.20;99.90
37518;DHT22;23366;52.498;13.446;2023-02-18T04:30:12;6.20;99.90
37518;DHT22;23366;52.498;13.446;2023-02-18T04:32:38;6.20;99.90
37518;DHT22;23366;52.498;13.446;2023-02-18T04:35:04;6.20;99.90
37518;DHT22;23366;52.498;13.446;2023-02-18T04:37:29;6.20;99.90
37518;DHT22;23366;52.498;13.446;2023-02-18T04:39:55;6.20;99.90
37518;DHT22;23366;52.498;13.446;2023-02-18T04:42:21;6.20;99.90
37518;DHT22;23366;52.498;13.446;2023-02-18T04:44:46;6.20;99.90
37518;DHT22;23366;52.498;13.446;2023-02-18T04:47:12;6.10;99.90
37518;DHT22;23366;52.498;13.446;2023-02-18T04:49:37;6.10;99.90
37518;DHT22;23366;52.498;13.446;2023-02-18T04:52:03;6.20;99.90
37518;DHT22;23366;52.498;13.446;2023-02-18T04:54:29;6.10;99.90
37518;DHT22;23366;52.498;13.446;2023-02-18T04:56:54;6.10;99.90
37518;DHT22;23366;52.498;13.446;2023-02-18T04:59:20;6.10;99.90
37518;DHT22;23366;52.498;13.446;2023-02-18T05:01:46;6.10;99.90
37518;DHT22;23366;52.498;13.446;2023-02-18T05:04:11;6.10;99.90
37518;DHT22;23366;52.498;13.446;2023-02-18T05:06:37;6.10;99.90
37518;DHT22;23366;52.498;13.446;2023-02-18T05:09:05;6.10;99.90
37518;DHT22;23366;52.498;13.446;2023-02-18T05:11:30;6.10;99.90
37518;DHT22;23366;52.498;13.446;2023-02-18T05:13:56;6.10;99.90
37518;DHT22;23366;52.498;13.446;2023-02-18T05:16:22;6.10;99.90
37518;DHT22;23366;52.498;13.446;2023-02-18T05:18:47;6.10;99.90
37518;DHT22;23366;52.498;13.446;2023-02-18T05:21:13;6.10;99.90
37518;DHT22;23366;52.498;13.446;2023-02-18T05:23:38;6.10;99.90
37518;DHT22;23366;52.498;13.446;2023-02-18T05:26:04;6.20;99.90
37518;DHT22;23366;52.498;13.446;2023-02-18T05:28:29;6.20;99.90
37518;DHT22;23366;52.498;13.446;2023-02-18T05:30:55;6.20;99.90
37518;DHT22;23366;52.498;13.446;2023-02-18T05:33:21;6.20;99.90
37518;DHT22;23366;52.498;13.446;2023-02-18T05:35:47;6.30;99.90
37518;DHT22;23366;52.498;13.446;2023-02-18T05:38:13;6.30;99.90
37518;DHT22;23366;52.498;13.446;2023-02-18T05:40:39;6.30;99.90
37518;DHT22;23366;52.498;13.446;2023-02-18T05:43:04;6.40;99.90
37518;DHT22;23366;52.498;13.446;2023-02-18T05:45:32;6.40;99.90
37518;DHT22;23366;52.498;13.446;2023-02-18T05:47:57;6.50;99.90
37518;DHT22;23366;52.498;13.446;2023-02-18T05:50:23;6.50;99.90
37518;DHT22;23366;52.498;13.446;2023-02-18T05:52:49;6.50;99.90
37518;DHT22;23366;52.498;13.446;2023-02-18T05:55:15;6.50;99.90
37518;DHT22;23366;52.498;13.446;2023-02-18T05:57:40;6.60;99.90
37518;DHT22;23366;52.498;13.446;2023-02-18T06:00:06;6.60;99.90
37518;DHT22;23366;52.498;13.446;2023-02-18T06:02:35;6.60;99.90
37518;DHT22;23366;52.498;13.446;2023-02-18T06:05:01;6.70;99.90
37518;DHT22;23366;52.498;13.446;2023-02-18T06:07:26;6.70;99.90
37518;DHT22;23366;52.498;13.446;2023-02-18T06:09:52;6.70;99.90
37518;DHT22;23366;52.498;13.446;2023-02-18T06:12:18;6.70;99.90
37518;DHT22;23366;52.498;13.446;2023-02-18T06:14:43;6.70;99.90
37518;DHT22;23366;52.498;13.446;2023-02-18T06:17:11;6.70;99.90
37518;DHT22;23366;52.498;13.446;2023-02-18T06:19:36;6.80;99.90
37518;DHT22;23366;52.498;13.446;2023-02-18T06:22:02;6.80;99.90
37518;DHT22;23366;52.498;13.446;2023-02-18T06:24:28;6.80;99.90
37518;DHT22;23366;52.498;13.446;2023-02-18T06:26:53;6.90;99.90
37518;DHT22;23366;52.498;13.446;2023-02-18T06:29:19;6.90;99.90
37518;DHT22;23366;52.498;13.446;2023-02-18T06:31:44;6.90;99.90
37518;DHT22;23366;52.498;13.446;2023-02-18T06:34:10;6.90;99.90
37518;DHT22;23366;52.498;13.446;2023-02-18T06:36:36;6.90;99.90
37518;DHT22;23366;52.498;13.446;2023-02-18T06:39:03;6.90;99.90
37518;DHT22;23366;52.498;13.446;2023-02-18T06:41:28;7.00;99.90
37518;DHT22;23366;52.498;13.446;2023-02-18T06:43:54;7.00;99.90
37518;DHT22;23366;52.498;13.446;2023-02-18T06:46:19;7.10;99.90
37518;DHT22;23366;52.498;13.446;2023-02-18T06:48:45;7.10;99.90
37518;DHT22;23366;52.498;13.446;2023-02-18T06:51:11;7.10;99.90
37518;DHT22;23366;52.498;13.446;2023-02-18T06:53:36;7.10;99.90
37518;DHT22;23366;52.498;13.446;2023-02-18T06:56:02;7.10;99.90
37518;DHT22;23366;52.498;13.446;2023-02-18T06:58:28;7.10;99.90
37518;DHT22;23366;52.498;13.446;2023-02-18T07:00:53;7.20;99.90
37518;DHT22;23366;52.498;13.446;2023-02-18T07:03:19;7.20;99.90
37518;DHT22;23366;52.498;13.446;2023-02-18T07:05:44;7.20;99.90
37518;DHT22;23366;52.498;13.446;2023-02-18T07:08:10;7.20;99.90
37518;DHT22;23366;52.498;13.446;2023-02-18T07:10:36;7.20;99.90
37518;DHT22;23366;52.498;13.446;2023-02-18T07:13:02;7.20;99.90
37518;DHT22;23366;52.498;13.446;2023-02-18T07:15:28;7.20;99.90
37518;DHT22;23366;52.498;13.446;2023-02-18T07:17:57;7.30;99.90
37518;DHT22;23366;52.498;13.446;2023-02-18T07:20:24;7.30;99.90
37518;DHT22;23366;52.498;13.446;2023-02-18T07:22:50;7.30;99.90
37518;DHT22;23366;52.498;13.446;2023-02-18T07:25:16;7.30;99.90
37518;DHT22;23366;52.498;13.446;2023-02-18T07:27:41;7.40;99.90
37518;DHT22;23366;52.498;13.446;2023-02-18T07:30:08;7.40;99.90
37518;DHT22;23366;52.498;13.446;2023-02-18T07:32:33;7.40;99.90
37518;DHT22;23366;52.498;13.446;2023-02-18T07:34:59;7.50;99.90
37518;DHT22;23366;52.498;13.446;2023-02-18T07:37:32;7.40;99.90
37518;DHT22;23366;52.498;13.446;2023-02-18T07:39:57;7.40;99.90
37518;DHT22;23366;52.498;13.446;2023-02-18T07:42:23;7.50;99.90
37518;DHT22;23366;52.498;13.446;2023-02-18T07:44:49;7.40;99.90
37518;DHT22;23366;52.498;13.446;2023-02-18T07:47:15;7.50;99.90
37518;DHT22;23366;52.498;13.446;2023-02-18T07:49:44;7.50;99.90
37518;DHT22;23366;52.498;13.446;2023-02-18T07:52:09;7.50;99.90
37518;DHT22;23366;52.498;13.446;2023-02-18T07:54:35;7.50;99.90
37518;DHT22;23366;52.498;13.446;2023-02-18T07:57:01;7.60;99.90
37518;DHT22;23366;52.498;13.446;2023-02-18T07:59:26;7.70;99.90
37518;DHT22;23366;52.498;13.446;2023-02-18T08:01:53;7.70;99.90
37518;DHT22;23366;52.498;13.446;2023-02-18T08:04:19;7.70;99.90
37518;DHT22;23366;52.498;13.446;2023-02-18T08:06:46;7.80;99.90
37518;DHT22;23366;52.498;13.446;2023-02-18T08:09:12;7.80;99.90
37518;DHT22;23366;52.498;13.446;2023-02-18T08:11:39;7.90;99.90
37518;DHT22;23366;52.498;13.446;2023-02-18T08:14:05;7.90;99.90
37518;DHT22;23366;52.498;13.446;2023-02-18T08:16:33;7.90;99.90
37518;DHT22;23366;52.498;13.446;2023-02-18T08:18:59;7.90;99.90
37518;DHT22;23366;52.498;13.446;2023-02-18T08:21:26;7.90;99.90
37518;DHT22;23366;52.498;13.446;2023-02-18T08:23:52;7.80;99.90
37518;DHT22;23366;52.498;13.446;2023-02-18T08:26:18;7.80;99.90
37518;DHT22;23366;52.498;13.446;2023-02-18T08:28:45;7.80;99.90
37518;DHT22;23366;52.498;13.446;2023-02-18T08:31:20;7.80;99.90
37518;DHT22;23366;52.498;13.446;2023-02-18T08:33:46;7.70;99.90
37518;DHT22;23366;52.498;13.446;2023-02-18T08:36:12;7.70;99.90
37518;DHT22;23366;52.498;13.446;2023-02-18T08:38:38;7.60;99.90
37518;DHT22;23366;52.498;13.446;2023-02-18T08:41:05;7.60;99.90
37518;DHT22;23366;52.498;13.446;2023-02-18T08:43:30;7.60;99.90
37518;DHT22;23366;52.498;13.446;2023-02-18T08:45:57;7.60;99.90
37518;DHT22;23366;52.498;13.446;2023-02-18T08:48:23;7.60;99.90
37518;DHT22;23366;52.498;13.446;2023-02-18T08:50:48;7.60;99.90
37518;DHT22;23366;52.498;13.446;2023-02-18T08:53:14;7.60;99.90
37518;DHT22;23366;52.498;13.446;2023-02-18T08:55:40;7.60;99.90
37518;DHT22;23366;52.498;13.446;2023-02-18T08:58:06;7.60;99.90
37518;DHT22;23366;52.498;13.446;2023-02-18T09:00:31;7.50;99.90
37518;DHT22;23366;52.498;13.446;2023-02-18T09:02:57;7.50;99.90
37518;DHT22;23366;52.498;13.446;2023-02-18T09:05:23;7.50;99.90
37518;DHT22;23366;52.498;13.446;2023-02-18T09:07:49;7.50;99.90
37518;DHT22;23366;52.498;13.446;2023-02-18T09:10:15;7.40;99.90
37518;DHT22;23366;52.498;13.446;2023-02-18T09:12:40;7.40;99.90
37518;DHT22;23366;52.498;13.446;2023-02-18T09:15:06;7.40;99.90
37518;DHT22;23366;52.498;13.446;2023-02-18T09:17:32;7.50;99.90
37518;DHT22;23366;52.498;13.446;2023-02-18T09:19:58;7.50;99.90
37518;DHT22;23366;52.498;13.446;2023-02-18T09:22:24;7.50;99.90
37518;DHT22;23366;52.498;13.446;2023-02-18T09:24:49;7.50;99.90
37518;DHT22;23366;52.498;13.446;2023-02-18T09:27:15;7.50;99.90
37518;DHT22;23366;52.498;13.446;2023-02-18T09:29:41;7.50;99.90
37518;DHT22;23366;52.498;13.446;2023-02-18T09:32:07;7.50;99.90
37518;DHT22;23366;52.498;13.446;2023-02-18T09:34:34;7.50;99.90
37518;DHT22;23366;52.498;13.446;2023-02-18T09:37:00;7.40;99.90
37518;DHT22;23366;52.498;13.446;2023-02-18T09:39:26;7.40;99.90
37518;DHT22;23366;52.498;13.446;2023-02-18T09:41:54;7.30;99.90
37518;DHT22;23366;52.498;13.446;2023-02-18T09:44:33;7.20;99.90
37518;DHT22;23366;52.498;13.446;2023-02-18T09:47:12;7.30;99.90
37518;DHT22;23366;52.498;13.446;2023-02-18T09:49:50;7.20;99.90
37518;DHT22;23366;52.498;13.446;2023-02-18T09:52:23;7.20;99.90
37518;DHT22;23366;52.498;13.446;2023-02-18T09:54:50;7.20;99.90
37518;DHT22;23366;52.498;13.446;2023-02-18T09:57:26;7.10;99.90
37518;DHT22;23366;52.498;13.446;2023-02-18T09:59:58;7.10;99.90
37518;DHT22;23366;52.498;13.446;2023-02-18T10:02:26;7.10;99.90
37518;DHT22;23366;52.498;13.446;2023-02-18T10:04:52;7.10;99.90
37518;DHT22;23366;52.498;13.446;2023-02-18T10:07:30;7.00;99.90
37518;DHT22;23366;52.498;13.446;2023-02-18T10:10:00;6.90;99.90
37518;DHT22;23366;52.498;13.446;2023-02-18T10:12:29;7.00;99.90
37518;DHT22;23366;52.498;13.446;2023-02-18T10:14:59;7.00;99.90
37518;DHT22;23366;52.498;13.446;2023-02-18T10:17:28;7.00;99.90
37518;DHT22;23366;52.498;13.446;2023-02-18T10:19:55;7.00;99.90
37518;DHT22;23366;52.498;13.446;2023-02-18T10:22:23;7.00;99.90
37518;DHT22;23366;52.498;13.446;2023-02-18T10:24:56;6.90;99.90
37518;DHT22;23366;52.498;13.446;2023-02-18T10:27:32;6.90;99.90
37518;DHT22;23366;52.498;13.446;2023-02-18T10:30:09;7.00;99.90
37518;DHT22;23366;52.498;13.446;2023-02-18T10:32:43;6.90;99.90
37518;DHT22;23366;52.498;13.446;2023-02-18T10:38:08;6.80;99.90
37518;DHT22;23366;52.498;13.446;2023-02-18T10:44:04;7.00;99.90
37518;DHT22;23366;52.498;13.446;2023-02-18T10:52:55;7.20;99.90
37518;DHT22;23366;52.498;13.446;2023-02-18T10:55:34;7.20;99.90
37518;DHT22;23366;52.498;13.446;2023-02-18T10:58:00;7.10;99.90
37518;DHT22;23366;52.498;13.446;2023-02-18T11:00:26;7.10;99.90
37518;DHT22;23366;52.498;13.446;2023-02-18T11:03:03;7.00;99.90
37518;DHT22;23366;52.498;13.446;2023-02-18T11:05:37;7.00;99.90
37518;DHT22;23366;52.498;13.446;2023-02-18T11:08:10;7.10;99.90
37518;DHT22;23366;52.498;13.446;2023-02-18T11:10:41;7.10;99.90
37518;DHT22;23366;52.498;13.446;2023-02-18T11:13:11;7.10;99.90
37518;DHT22;23366;52.498;13.446;2023-02-18T11:16:03;7.20;99.90
37518;DHT22;23366;52.498;13.446;2023-02-18T11:18:39;7.20;99.90
37518;DHT22;23366;52.498;13.446;2023-02-18T11:21:30;7.20;99.90
37518;DHT22;23366;52.498;13.446;2023-02-18T11:24:09;7.20;99.90
37518;DHT22;23366;52.498;13.446;2023-02-18T11:26:36;7.20;99.90
37518;DHT22;23366;52.498;13.446;2023-02-18T11:29:08;7.30;99.90
37518;DHT22;23366;52.498;13.446;2023-02-18T11:31:47;7.20;99.90
37518;DHT22;23366;52.498;13.446;2023-02-18T11:34:20;7.20;99.90
37518;DHT22;23366;52.498;13.446;2023-02-18T11:36:47;7.30;99.90
37518;DHT22;23366;52.498;13.446;2023-02-18T11:39:26;7.30;99.90
37518;DHT22;23366;52.498;13.446;2023-02-18T11:42:02;7.20;99.90
37518;DHT22;23366;52.498;13.446;2023-02-18T11:44:37;7.20;99.90
37518;DHT22;23366;52.498;13.446;2023-02-18T11:47:19;7.20;99.90
37518;DHT22;23366;52.498;13.446;2023-02-18T11:50:09;7.20;99.90
37518;DHT22;23366;52.498;13.446;2023-02-18T11:52:47;7.20;99.90
37518;DHT22;23366;52.498;13.446;2023-02-18T11:55:19;7.10;99.90
37518;DHT22;23366;52.498;13.446;2023-02-18T11:57:57;7.20;99.90
37518;DHT22;23366;52.498;13.446;2023-02-18T12:00:46;7.20;99.90
37518;DHT22;23366;52.498;13.446;2023-02-18T12:03:48;7.30;99.90
37518;DHT22;23366;52.498;13.446;2023-02-18T12:06:47;7.30;99.90
37518;DHT22;23366;52.498;13.446;2023-02-18T12:11:42;7.40;99.90
37518;DHT22;23366;52.498;13.446;2023-02-18T12:14:18;7.50;99.90
37518;DHT22;23366;52.498;13.446;2023-02-18T12:16:51;7.60;99.90
37518;DHT22;23366;52.498;13.446;2023-02-18T12:19:35;7.70;99.90
37518;DHT22;23366;52.498;13.446;2023-02-18T12:27:36;7.80;99.90
37518;DHT22;23366;52.498;13.446;2023-02-18T12:30:39;7.80;99.90
37518;DHT22;23366;52.498;13.446;2023-02-18T12:41:43;8.20;99.90
37518;DHT22;23366;52.498;13.446;2023-02-18T12:44:22;8.20;99.90
37518;DHT22;23366;52.498;13.446;2023-02-18T12:47:18;8.30;99.90
37518;DHT22;23366;52.498;13.446;2023-02-18T12:52:42;8.50;99.90
37518;DHT22;23366;52.498;13.446;2023-02-18T12:56:01;8.50;99.90
37518;DHT22;23366;52.498;13.446;2023-02-18T13:01:31;8.80;99.90
37518;DHT22;23366;52.498;13.446;2023-02-18T13:05:06;8.90;99.90
37518;DHT22;23366;52.498;13.446;2023-02-18T13:07:35;9.00;99.90
37518;DHT22;23366;52.498;13.446;2023-02-18T13:13:07;9.20;99.90
37518;DHT22;23366;52.498;13.446;2023-02-18T13:15:56;9.30;99.90
37518;DHT22;23366;52.498;13.446;2023-02-18T13:18:30;9.30;99.90
37518;DHT22;23366;52.498;13.446;2023-02-18T13:21:11;9.30;99.90
37518;DHT22;23366;52.498;13.446;2023-02-18T13:23:44;9.40;99.90
37518;DHT22;23366;52.498;13.446;2023-02-18T13:26:17;9.40;99.90
37518;DHT22;23366;52.498;13.446;2023-02-18T13:28:45;9.40;99.90
37518;DHT22;23366;52.498;13.446;2023-02-18T13:31:29;9.50;99.90
37518;DHT22;23366;52.498;13.446;2023-02-18T13:37:30;9.50;99.90
37518;DHT22;23366;52.498;13.446;2023-02-18T13:39:58;9.50;99.90
37518;DHT22;23366;52.498;13.446;2023-02-18T13:52:49;9.50;99.90
37518;DHT22;23366;52.498;13.446;2023-02-18T13:55:21;9.60;99.90
37518;DHT22;23366;52.498;13.446;2023-02-18T13:57:49;9.60;99.90
37518;DHT22;23366;52.498;13.446;2023-02-18T14:00:35;9.60;99.90
37518;DHT22;23366;52.498;13.446;2023-02-18T14:03:35;9.60;99.90
37518;DHT22;23366;52.498;13.446;2023-02-18T14:06:17;9.60;99.90
37518;DHT22;23366;52.498;13.446;2023-02-18T14:08:44;9.60;99.90
37518;DHT22;23366;52.498;13.446;2023-02-18T14:13:48;9.60;99.90
37518;DHT22;23366;52.498;13.446;2023-02-18T14:16:18;9.60;99.90
37518;DHT22;23366;52.498;13.446;2023-02-18T14:23:41;9.60;99.90
37518;DHT22;23366;52.498;13.446;2023-02-18T14:28:47;9.60;99.90
37518;DHT22;23366;52.498;13.446;2023-02-18T14:34:24;9.60;99.90
37518;DHT22;23366;52.498;13.446;2023-02-18T14:39:51;9.60;99.90
37518;DHT22;23366;52.498;13.446;2023-02-18T14:42:39;9.60;99.90
37518;DHT22;23366;52.498;13.446;2023-02-18T14:45:28;9.60;99.90
37518;DHT22;23366;52.498;13.446;2023-02-18T14:48:05;9.60;99.90
37518;DHT22;23366;52.498;13.446;2023-02-18T14:50:35;9.50;99.90
37518;DHT22;23366;52.498;13.446;2023-02-18T14:53:10;9.50;99.90
37518;DHT22;23366;52.498;13.446;2023-02-18T14:55:41;9.50;99.90
37518;DHT22;23366;52.498;13.446;2023-02-18T14:58:29;9.50;99.90
37518;DHT22;23366;52.498;13.446;2023-02-18T15:00:56;9.50;99.90
37518;DHT22;23366;52.498;13.446;2023-02-18T15:03:21;9.50;99.90
37518;DHT22;23366;52.498;13.446;2023-02-18T15:05:48;9.50;99.90
37518;DHT22;23366;52.498;13.446;2023-02-18T15:10:44;9.50;99.90
37518;DHT22;23366;52.498;13.446;2023-02-18T15:13:35;9.50;99.90
37518;DHT22;23366;52.498;13.446;2023-02-18T15:16:29;9.50;99.90
37518;DHT22;23366;52.498;13.446;2023-02-18T15:19:04;9.50;99.90
37518;DHT22;23366;52.498;13.446;2023-02-18T15:21:42;9.50;99.90
37518;DHT22;23366;52.498;13.446;2023-02-18T15:26:44;9.50;99.90
37518;DHT22;23366;52.498;13.446;2023-02-18T15:29:22;9.50;99.90
37518;DHT22;23366;52.498;13.446;2023-02-18T15:31:48;9.50;99.90
37518;DHT22;23366;52.498;13.446;2023-02-18T15:37:00;9.60;99.90
37518;DHT22;23366;52.498;13.446;2023-02-18T15:39:27;9.60;99.90
37518;DHT22;23366;52.498;13.446;2023-02-18T15:41:59;9.60;99.90
37518;DHT22;23366;52.498;13.446;2023-02-18T15:44:29;9.60;99.90
37518;DHT22;23366;52.498;13.446;2023-02-18T15:47:06;9.60;99.90
37518;DHT22;23366;52.498;13.446;2023-02-18T15:49:32;9.60;99.90
37518;DHT22;23366;52.498;13.446;2023-02-18T15:52:03;9.60;99.90
37518;DHT22;23366;52.498;13.446;2023-02-18T15:54:32;9.60;99.90
37518;DHT22;23366;52.498;13.446;2023-02-18T15:57:01;9.50;99.90
37518;DHT22;23366;52.498;13.446;2023-02-18T15:59:31;9.60;99.90
37518;DHT22;23366;52.498;13.446;2023-02-18T16:04:37;9.60;99.90
37518;DHT22;23366;52.498;13.446;2023-02-18T16:07:16;9.50;99.90
37518;DHT22;23366;52.498;13.446;2023-02-18T16:09:43;9.50;99.90
37518;DHT22;23366;52.498;13.446;2023-02-18T16:12:28;9.50;99.90
37518;DHT22;23366;52.498;13.446;2023-02-18T16:14:55;9.40;99.90
37518;DHT22;23366;52.498;13.446;2023-02-18T16:17:27;9.50;99.90
37518;DHT22;23366;52.498;13.446;2023-02-18T16:19:59;9.50;99.90
37518;DHT22;23366;52.498;13.446;2023-02-18T16:24:55;9.40;99.90
37518;DHT22;23366;52.498;13.446;2023-02-18T16:27:29;9.40;99.90
37518;DHT22;23366;52.498;13.446;2023-02-18T16:30:16;9.30;99.90
37518;DHT22;23366;52.498;13.446;2023-02-18T16:32:42;9.40;99.90
37518;DHT22;23366;52.498;13.446;2023-02-18T16:35:10;9.30;99.90
37518;DHT22;23366;52.498;13.446;2023-02-18T16:37:36;9.30;99.90
37518;DHT22;23366;52.498;13.446;2023-02-18T16:40:24;9.30;99.90
37518;DHT22;23366;52.498;13.446;2023-02-18T16:42:50;9.20;99.90
37518;DHT22;23366;52.498;13.446;2023-02-18T16:45:16;9.20;99.90
37518;DHT22;23366;52.498;13.446;2023-02-18T16:47:43;9.20;99.90
37518;DHT22;23366;52.498;13.446;2023-02-18T16:50:20;9.20;99.90
37518;DHT22;23366;52.498;13.446;2023-02-18T16:52:48;9.20;99.90
37518;DHT22;23366;52.498;13.446;2023-02-18T16:55:23;9.10;99.90
37518;DHT22;23366;52.498;13.446;2023-02-18T16:57:48;9.10;99.90
37518;DHT22;23366;52.498;13.446;2023-02-18T17:00:16;9.00;99.90
37518;DHT22;23366;52.498;13.446;2023-02-18T17:02:48;8.90;99.90
37518;DHT22;23366;52.498;13.446;2023-02-18T17:05:26;8.70;99.90
37518;DHT22;23366;52.498;13.446;2023-02-18T17:07:54;8.60;99.90
37518;DHT22;23366;52.498;13.446;2023-02-18T17:10:20;8.50;99.90
37518;DHT22;23366;52.498;13.446;2023-02-18T17:12:45;8.50;99.90
37518;DHT22;23366;52.498;13.446;2023-02-18T17:15:24;8.40;99.90
37518;DHT22;23366;52.498;13.446;2023-02-18T17:17:50;8.40;99.90
37518;DHT22;23366;52.498;13.446;2023-02-18T17:20:15;8.40;99.90
37518;DHT22;23366;52.498;13.446;2023-02-18T17:22:41;8.30;99.90
37518;DHT22;23366;52.498;13.446;2023-02-18T17:25:16;8.20;99.90
37518;DHT22;23366;52.498;13.446;2023-02-18T17:27:43;8.20;99.90
37518;DHT22;23366;52.498;13.446;2023-02-18T17:30:09;8.10;99.90
37518;DHT22;23366;52.498;13.446;2023-02-18T17:32:34;8.10;99.90
37518;DHT22;23366;52.498;13.446;2023-02-18T17:35:00;8.00;99.90
37518;DHT22;23366;52.498;13.446;2023-02-18T17:37:25;8.00;99.90
37518;DHT22;23366;52.498;13.446;2023-02-18T17:39:51;7.90;99.90
37518;DHT22;23366;52.498;13.446;2023-02-18T17:42:17;7.80;99.90
37518;DHT22;23366;52.498;13.446;2023-02-18T17:44:42;7.80;99.90